Time;durP1;ratioP1;P1;durP2;ratioP2;P2;SDS_P1;SDS_P2;PMS_P1;PMS_P2;Temp;Humidity;BMP_temperature;BMP_pressure;BME280_temperature;BME280_humidity;BME280_pressure;Samples;Min_cycle;Max_cycle;Signal;HPM_P1;HPM_P2
2022/06/03 00:01:25;;;;;;;17.87;11.30;;;;;;;15.56;100.00;100367.63;1733487;82;21553;-71
2022/06/03 00:04:39;;;;;;;15.43;11.00;;;;;;;15.52;100.00;100372.71;1733166;82;21034;-71
2022/06/03 00:07:41;;;;;;;17.87;10.95;;;;;;;15.48;100.00;100376.46;1733402;82;21124;-69
2022/06/03 00:10:46;;;;;;;18.37;11.57;;;;;;;15.42;100.00;100383.45;1733434;82;21053;-71
2022/06/03 00:14:00;;;;;;;20.85;12.10;;;;;;;15.37;100.00;100380.16;1718569;83;21021;-70
2022/06/03 00:17:00;;;;;;;18.00;11.45;;;;;;;15.31;100.00;100386.17;1727978;82;20998;-71
2022/06/03 00:19:50;;;;;;;19.57;12.50;;;;;;;15.28;100.00;100399.62;1747964;82;21560;-71
2022/06/03 00:22:34;;;;;;;18.42;12.35;;;;;;;15.25;100.00;100403.77;1730533;82;22130;-72
2022/06/03 00:25:09;;;;;;;21.05;12.23;;;;;;;15.24;100.00;100399.86;1748009;82;21056;-70
2022/06/03 00:27:59;;;;;;;17.62;12.55;;;;;;;15.20;100.00;100404.45;1748194;81;21459;-71
2022/06/03 00:30:43;;;;;;;20.62;12.95;;;;;;;15.16;100.00;100405.58;1720659;82;21130;-70
2022/06/03 00:33:37;;;;;;;21.68;13.20;;;;;;;15.13;100.00;100420.30;1748172;82;21052;-71
2022/06/03 00:36:42;;;;;;;17.50;12.43;;;;;;;15.11;100.00;100412.88;1748014;81;21104;-71
2022/06/03 00:39:54;;;;;;;23.42;13.85;;;;;;;15.07;100.00;100412.67;1747717;82;21053;-70
2022/06/03 00:43:01;;;;;;;18.40;13.05;;;;;;;15.03;100.00;100416.41;1709451;83;26635;-71
2022/06/03 00:45:55;;;;;;;18.55;12.95;;;;;;;14.98;100.00;100415.32;1748263;81;21121;-71
2022/06/03 00:48:42;;;;;;;26.85;13.85;;;;;;;14.96;100.00;100412.36;1746326;82;21562;-71
2022/06/03 00:51:48;;;;;;;24.18;14.50;;;;;;;14.93;100.00;100409.84;1706670;84;21038;-71
2022/06/03 00:54:46;;;;;;;22.00;14.35;;;;;;;14.92;100.00;100424.05;1742290;82;21589;-71
2022/06/03 00:57:41;;;;;;;19.67;13.05;;;;;;;14.88;100.00;100417.59;1706687;84;21046;-71
2022/06/03 01:00:30;;;;;;;21.20;14.07;;;;;;;14.89;100.00;100422.42;1742234;82;21295;-70
2022/06/03 01:03:11;;;;;;;21.85;13.60;;;;;;;14.89;100.00;100433.02;1706591;84;21545;-71
2022/06/03 01:06:09;;;;;;;22.35;14.03;;;;;;;14.92;100.00;100435.98;1742848;82;21057;-70
2022/06/03 01:08:44;;;;;;;16.45;12.58;;;;;;;14.95;100.00;100430.52;1742619;82;21073;-70
2022/06/03 01:11:27;;;;;;;18.37;13.93;;;;;;;14.97;100.00;100436.60;1700982;83;21098;-71
2022/06/03 01:14:14;;;;;;;18.00;14.55;;;;;;;14.98;100.00;100431.71;1711475;83;21941;-69
2022/06/03 01:17:09;;;;;;;16.93;12.58;;;;;;;14.98;100.00;100429.05;1712647;81;21030;-69
2022/06/03 01:20:01;;;;;;;16.27;13.03;;;;;;;14.98;100.00;100434.36;1713081;83;21575;-70
2022/06/03 01:22:54;;;;;;;19.30;13.25;;;;;;;14.98;100.00;100449.80;1713063;83;21013;-71
2022/06/03 01:25:52;;;;;;;18.10;14.45;;;;;;;14.98;100.00;100455.58;1650694;86;21044;-71
2022/06/03 01:28:51;;;;;;;15.13;12.93;;;;;;;14.99;100.00;100454.63;1709367;83;21681;-70
2022/06/03 01:32:14;;;;;;;15.40;13.22;;;;;;;14.97;100.00;100458.67;1713104;83;21529;-70
2022/06/03 01:35:10;;;;;;;19.48;14.25;;;;;;;15.00;100.00;100464.29;1713216;83;21585;-71
2022/06/03 01:37:53;;;;;;;17.07;14.03;;;;;;;15.00;100.00;100468.27;1713007;83;21085;-70
2022/06/03 01:40:42;;;;;;;16.82;13.28;;;;;;;14.98;100.00;100470.16;1713379;83;21044;-71
2022/06/03 01:43:17;;;;;;;20.92;14.38;;;;;;;14.99;100.00;100473.20;1713310;83;21057;-70
2022/06/03 01:46:09;;;;;;;20.17;13.90;;;;;;;14.97;100.00;100479.03;1712833;83;21022;-71
2022/06/03 01:49:13;;;;;;;14.73;13.15;;;;;;;14.97;100.00;100491.83;1712979;83;21543;-70
2022/06/03 01:52:20;;;;;;;23.65;14.58;;;;;;;14.96;100.00;100490.12;1713047;83;21054;-71
2022/06/03 01:55:08;;;;;;;22.30;13.85;;;;;;;14.95;100.00;100497.66;1713122;83;21151;-71
2022/06/03 01:57:57;;;;;;;16.65;13.65;;;;;;;14.95;100.00;100504.77;1712014;83;21382;-71
2022/06/03 02:00:41;;;;;;;17.20;14.53;;;;;;;14.94;100.00;100495.11;1712506;83;21053;-71
2022/06/03 02:03:23;;;;;;;19.80;15.32;;;;;;;14.94;100.00;100500.41;1692879;83;21029;-71
2022/06/03 02:06:01;;;;;;;17.40;14.18;;;;;;;14.93;100.00;100503.98;1713182;83;20998;-71
2022/06/03 02:08:55;;;;;;;17.48;14.95;;;;;;;14.89;100.00;100511.25;1713040;83;22157;-70
2022/06/03 02:12:09;;;;;;;18.57;13.72;;;;;;;14.88;100.00;100511.72;1721509;82;21088;-70
2022/06/03 02:15:11;;;;;;;18.12;14.53;;;;;;;14.88;100.00;100522.33;1657994;86;21165;-70
2022/06/03 02:18:07;;;;;;;18.57;13.80;;;;;;;14.89;100.00;100526.69;1735451;82;21104;-71
2022/06/03 02:21:05;;;;;;;17.87;13.80;;;;;;;14.87;100.00;100528.55;1741934;82;21479;-72
2022/06/03 02:23:55;;;;;;;15.38;13.78;;;;;;;14.86;100.00;100524.19;1742530;82;21084;-71
2022/06/03 02:26:39;;;;;;;17.23;14.78;;;;;;;14.86;100.00;100532.15;1743147;82;22028;-71
2022/06/03 02:32:14;;;;;;;18.05;15.28;;;;;;;14.85;100.00;100533.06;1743162;82;21042;-71
2022/06/03 02:35:19;;;;;;;18.67;13.08;;;;;;;14.85;100.00;100540.16;1741930;82;21042;-72
2022/06/03 02:37:58;;;;;;;17.17;13.38;;;;;;;14.85;100.00;100539.69;1742052;82;21018;-72
2022/06/03 02:40:39;;;;;;;17.37;13.15;;;;;;;14.83;100.00;100549.51;1742706;82;21144;-70
2022/06/03 02:43:15;;;;;;;;;;;;;;;14.81;100.00;100554.02;1745445;82;21116;-70
2022/06/03 02:45:53;;;;;;;15.93;13.03;;;;;;;14.78;100.00;100562.13;1742379;82;20155;-69
2022/06/03 02:48:51;;;;;;;17.80;12.68;;;;;;;14.77;100.00;100566.17;1742642;82;21641;-72
2022/06/03 02:51:28;;;;;;;15.35;12.88;;;;;;;14.74;100.00;100565.86;1742663;82;21049;-70
2022/06/03 02:54:09;;;;;;;13.10;11.80;;;;;;;14.72;100.00;100570.37;1742536;82;21526;-70
2022/06/03 02:57:07;;;;;;;17.07;12.68;;;;;;;14.72;100.00;100567.72;1742376;82;21092;-70
2022/06/03 03:00:07;;;;;;;12.93;11.40;;;;;;;14.73;100.00;100569.45;1742555;82;21058;-70
2022/06/03 03:03:02;;;;;;;15.00;11.70;;;;;;;14.72;100.00;100569.04;1742819;82;21006;-70
2022/06/03 03:05:49;;;;;;;16.80;12.53;;;;;;;14.68;100.00;100577.62;1742473;82;21037;-70
2022/06/03 03:08:36;;;;;;;17.12;13.30;;;;;;;14.62;100.00;100577.05;1742550;82;21215;-70
2022/06/03 03:11:43;;;;;;;17.25;12.00;;;;;;;14.59;100.00;100578.53;1737069;82;21101;-71
2022/06/03 03:14:35;;;;;;;17.00;12.00;;;;;;;14.58;100.00;100580.30;1707034;84;21083;-70
2022/06/03 03:17:29;;;;;;;12.85;11.50;;;;;;;14.60;100.00;100581.55;1707177;82;21098;-72
2022/06/03 03:20:16;;;;;;;12.20;10.88;;;;;;;14.60;100.00;100584.20;1707204;84;21122;-71
2022/06/03 03:23:17;;;;;;;12.07;10.78;;;;;;;14.56;100.00;100591.45;1707120;84;21762;-70
2022/06/03 03:26:16;;;;;;;12.18;10.30;;;;;;;14.56;100.00;100595.88;1706880;83;21045;-71
2022/06/03 03:29:06;;;;;;;13.78;9.95;;;;;;;14.55;100.00;100591.52;1706966;84;21090;-71
2022/06/03 03:32:27;;;;;;;12.58;10.32;;;;;;;14.52;100.00;100593.81;1707193;84;21107;-70
2022/06/03 03:35:21;;;;;;;12.90;9.18;;;;;;;14.52;100.00;100597.79;1707144;82;21099;-70
2022/06/03 03:38:17;;;;;;;10.68;9.40;;;;;;;14.50;100.00;100600.97;1707041;83;21177;-70
2022/06/03 03:41:40;;;;;;;13.58;8.85;;;;;;;14.48;100.00;100602.36;1707013;84;21059;-70
2022/06/03 03:44:12;;;;;;;9.78;8.85;;;;;;;14.50;100.00;100605.42;1707000;83;21078;-71
2022/06/03 03:47:06;;;;;;;10.32;9.15;;;;;;;14.43;100.00;100597.73;1706738;83;21079;-70
2022/06/03 03:50:01;;;;;;;11.95;8.53;;;;;;;14.44;100.00;100610.52;1699285;83;21116;-72
2022/06/03 03:52:36;;;;;;;9.30;8.40;;;;;;;14.42;100.00;100616.34;1682642;85;21919;-71
2022/06/03 03:55:11;;;;;;;9.68;7.70;;;;;;;14.38;100.00;100620.94;1682486;85;21069;-70
2022/06/03 03:58:07;;;;;;;10.45;8.58;;;;;;;14.36;100.00;100624.59;1681556;85;21088;-70
2022/06/03 04:01:02;;;;;;;13.30;8.85;;;;;;;14.37;100.00;100638.22;1682829;84;21089;-72
2022/06/03 04:04:11;;;;;;;10.43;8.25;;;;;;;14.40;100.00;100642.05;1682555;85;21096;-72
2022/06/03 04:07:17;;;;;;;8.30;7.30;;;;;;;14.36;100.00;100640.02;1682461;85;21125;-72
2022/06/03 04:10:23;;;;;;;9.43;7.30;;;;;;;14.41;100.00;100647.30;1665650;85;21137;-71
2022/06/03 04:13:21;;;;;;;14.03;7.20;;;;;;;14.41;100.00;100651.27;1729280;82;21218;-72
2022/06/03 04:16:35;;;;;;;8.68;7.78;;;;;;;14.42;100.00;100658.30;1735496;82;21057;-71
2022/06/03 04:19:26;;;;;;;8.25;7.37;;;;;;;14.44;100.00;100667.02;1735367;82;21034;-72
2022/06/03 04:22:16;;;;;;;7.97;6.95;;;;;;;14.47;100.00;100674.85;1735527;82;22325;-71
2022/06/03 04:25:01;;;;;;;9.07;7.23;;;;;;;14.53;100.00;100676.83;1734702;82;21033;-70
2022/06/03 04:28:00;;;;;;;9.28;6.83;;;;;;;14.57;100.00;100681.10;1735572;82;21648;-70
2022/06/03 04:31:10;;;;;;;8.55;6.08;;;;;;;14.62;100.00;100680.42;1735444;82;21113;-72
2022/06/03 04:33:50;;;;;;;8.40;6.55;;;;;;;14.69;100.00;100684.52;1735841;82;21081;-70
2022/06/03 04:36:50;;;;;;;6.60;6.00;;;;;;;14.71;100.00;100698.56;1736208;82;22208;-72
2022/06/03 04:40:07;;;;;;;9.18;6.28;;;;;;;14.75;100.00;100689.55;1735821;82;21029;-70
2022/06/03 04:43:04;;;;;;;7.15;6.15;;;;;;;14.82;100.00;100688.33;1735903;82;21019;-70
2022/06/03 04:46:01;;;;;;;8.95;6.15;;;;;;;14.94;100.00;100688.70;1735628;82;22054;-71
2022/06/03 04:48:51;;;;;;;9.15;5.95;;;;;;;15.02;100.00;100690.08;1719214;82;21069;-70
2022/06/03 04:51:57;;;;;;;6.03;5.45;;;;;;;15.10;100.00;100687.91;1748838;82;21620;-71
2022/06/03 04:55:14;;;;;;;9.00;6.05;;;;;;;15.19;100.00;100695.91;1750553;82;21031;-71
2022/06/03 04:58:24;;;;;;;7.60;5.62;;;;;;;15.33;100.00;100695.73;1750521;82;21094;-72
2022/06/03 05:05:06;;;;;;;5.90;5.33;;;;;;;15.55;100.00;100716.30;1796451;79;22209;-70
2022/06/03 05:08:12;;;;;;;9.78;6.00;;;;;;;15.55;100.00;100721.60;1756428;81;20954;-71
2022/06/03 05:11:08;;;;;;;7.37;5.92;;;;;;;15.62;100.00;100727.04;1722820;83;21270;-71
2022/06/03 05:14:10;;;;;;;7.47;5.97;;;;;;;15.68;100.00;100733.36;1693897;84;20961;-71
2022/06/03 05:17:34;;;;;;;7.85;5.47;;;;;;;15.76;100.00;100734.36;1691136;84;21077;-71
2022/06/03 05:20:21;;;;;;;6.37;5.83;;;;;;;15.84;100.00;100720.70;1668944;86;21080;-70
2022/06/03 05:23:13;;;;;;;6.60;5.80;;;;;;;15.99;100.00;100729.24;1668586;86;21116;-70
2022/06/03 05:26:18;;;;;;;6.40;5.80;;;;;;;16.12;100.00;100730.80;1668797;86;21199;-72
2022/06/03 05:29:29;;;;;;;8.73;5.92;;;;;;;16.19;100.00;100735.33;1668533;86;21093;-71
2022/06/03 05:32:24;;;;;;;5.75;5.17;;;;;;;16.23;100.00;100739.56;1668499;86;21065;-71
2022/06/03 05:35:27;;;;;;;5.70;5.20;;;;;;;16.35;100.00;100743.77;1669049;85;21100;-71
2022/06/03 05:38:24;;;;;;;6.62;5.30;;;;;;;16.54;100.00;100742.37;1662447;86;21156;-71
2022/06/03 05:44:46;;;;;;;5.45;4.60;;;;;;;16.91;100.00;100748.87;1668606;86;21069;-70
2022/06/03 05:47:38;;;;;;;4.80;4.40;;;;;;;17.40;99.49;100763.05;1668825;86;21686;-71
2022/06/03 05:50:22;;;;;;;9.45;4.62;;;;;;;17.95;94.13;100771.58;1668505;86;21110;-72
2022/06/03 05:53:12;;;;;;;9.30;4.33;;;;;;;18.34;90.50;100772.86;1668888;86;21074;-72
2022/06/03 05:56:09;;;;;;;6.55;4.03;;;;;;;18.61;89.08;100773.00;1668516;86;21149;-72
2022/06/03 05:58:47;;;;;;;4.05;3.62;;;;;;;18.80;86.46;100773.64;1668467;86;21081;-72
2022/06/03 06:01:58;;;;;;;5.37;3.87;;;;;;;19.08;85.86;100770.13;1668513;86;21073;-71
2022/06/03 06:04:48;;;;;;;8.98;3.87;;;;;;;19.47;82.23;100777.91;1657432;85;21105;-70
2022/06/03 06:07:30;;;;;;;5.87;3.75;;;;;;;19.84;80.46;100775.55;1681476;85;21667;-72
2022/06/03 06:10:30;;;;;;;4.92;3.58;;;;;;;20.21;78.66;100771.78;1661587;85;21145;-73
2022/06/03 06:13:05;;;;;;;4.30;3.30;;;;;;;20.46;76.37;100771.46;1707689;83;21014;-71
2022/06/03 06:16:08;;;;;;;6.45;3.40;;;;;;;20.82;76.50;100771.23;1709621;83;21149;-72
2022/06/03 06:19:04;;;;;;;5.03;3.35;;;;;;;21.27;75.61;100768.97;1709337;83;21588;-72
2022/06/03 06:21:59;;;;;;;4.55;3.00;;;;;;;21.63;71.71;100777.54;1709467;83;21005;-70
2022/06/03 06:24:55;;;;;;;6.15;3.77;;;;;;;21.57;68.09;100777.48;1709467;83;21220;-70
2022/06/03 06:27:58;;;;;;;5.85;3.30;;;;;;;21.64;66.56;100771.69;1709465;83;21112;-70
2022/06/03 06:30:57;;;;;;;5.08;3.10;;;;;;;21.79;64.46;100769.23;1709227;83;21044;-73
2022/06/03 06:33:30;;;;;;;4.42;3.27;;;;;;;21.95;64.51;100769.80;1709318;83;21096;-71
2022/06/03 06:36:50;;;;;;;8.45;3.02;;;;;;;22.17;62.16;100769.52;1708321;83;21064;-72
2022/06/03 06:39:37;;;;;;;4.85;2.90;;;;;;;22.25;60.36;100761.78;1709858;83;21517;-72
2022/06/03 06:42:12;;;;;;;4.67;3.30;;;;;;;22.35;59.52;100776.20;1702179;83;21096;-71
2022/06/03 06:45:24;;;;;;;5.03;3.25;;;;;;;22.65;60.06;100772.13;1709086;83;21094;-71
2022/06/03 06:48:28;;;;;;;2.90;2.60;;;;;;;22.87;58.90;100769.10;1709147;83;21068;-71
2022/06/03 06:51:18;;;;;;;3.72;3.22;;;;;;;23.04;57.17;100772.20;1709150;83;21147;-72
2022/06/03 06:53:51;;;;;;;3.98;2.83;;;;;;;23.17;56.14;100770.75;1709310;83;21220;-71
2022/06/03 06:56:32;;;;;;;5.70;3.10;;;;;;;23.22;55.33;100771.23;1709037;83;21064;-72
2022/06/03 06:59:20;;;;;;;2.60;2.40;;;;;;;23.20;56.12;100767.81;1709263;83;21063;-72
2022/06/03 07:01:52;;;;;;;4.72;2.72;;;;;;;23.21;55.69;100770.88;1689026;83;21088;-72
2022/06/03 07:04:23;;;;;;;7.20;2.20;;;;;;;23.35;54.82;100763.52;1690759;84;21501;-71
2022/06/03 07:06:55;;;;;;;5.72;2.60;;;;;;;23.33;53.44;100773.53;1708999;83;21348;-71
2022/06/03 07:09:27;;;;;;;2.67;2.40;;;;;;;23.44;52.82;100777.56;1696500;84;21573;-72
2022/06/03 07:12:22;;;;;;;4.03;2.40;;;;;;;23.54;52.21;100777.69;1708460;83;21482;-71
2022/06/03 07:15:12;;;;;;;3.40;2.47;;;;;;;23.78;52.31;100779.73;1701075;84;22061;-72
2022/06/03 07:21:05;;;;;;;6.30;2.52;;;;;;;24.21;51.85;100783.39;1701380;84;21554;-71
2022/06/03 07:23:52;;;;;;;3.17;1.95;;;;;;;24.39;50.43;100783.18;1701314;84;21155;-72
2022/06/03 07:26:38;;;;;;;4.53;2.42;;;;;;;24.53;50.85;100782.53;1679922;85;21128;-71
2022/06/03 07:29:24;;;;;;;6.25;1.80;;;;;;;24.65;48.17;100794.44;1701381;84;21076;-72
2022/06/03 07:31:59;;;;;;;4.97;1.85;;;;;;;24.66;47.04;100796.63;1699878;84;21084;-72
2022/06/03 07:34:44;;;;;;;3.90;1.90;;;;;;;24.62;45.85;100797.41;1700891;84;21259;-72
2022/06/03 07:37:27;;;;;;;4.97;2.00;;;;;;;24.72;45.62;100791.23;1701273;84;21124;-72
2022/06/03 07:40:20;;;;;;;4.17;1.70;;;;;;;24.78;42.50;100787.98;1700401;84;21671;-71
2022/06/03 07:42:55;;;;;;;5.75;2.02;;;;;;;24.73;42.45;100782.98;1701056;84;21132;-72
2022/06/03 07:45:45;;;;;;;2.05;1.70;;;;;;;24.93;42.59;100779.08;1701462;84;21076;-72
2022/06/03 07:48:16;;;;;;;2.50;1.77;;;;;;;25.05;42.95;100782.03;1700493;84;22265;-72
2022/06/03 07:50:55;;;;;;;4.22;1.70;;;;;;;25.07;41.77;100777.37;1701163;84;21113;-72
2022/06/03 07:53:27;;;;;;;4.62;1.80;;;;;;;24.99;40.92;100777.20;1701222;84;21052;-71
2022/06/03 07:55:56;;;;;;;2.65;1.87;;;;;;;24.86;41.77;100787.68;1701437;84;21660;-71
2022/06/03 07:58:25;;;;;;;2.52;1.67;;;;;;;24.87;41.19;100779.98;1701292;84;21930;-72
2022/06/03 08:00:53;;;;;;;3.02;1.70;;;;;;;24.96;41.24;100782.84;1701443;84;21232;-72
2022/06/03 08:03:23;;;;;;;2.33;1.57;;;;;;;25.43;41.52;100781.88;1701034;83;21069;-72
2022/06/03 08:05:59;;;;;;;3.02;1.60;;;;;;;25.79;40.68;100772.31;1709679;83;21091;-72
2022/06/03 08:11:25;;;;;;;5.40;1.90;;;;;;;25.56;39.49;100791.05;1703239;83;21124;-72
2022/06/03 08:13:57;;;;;;;1.45;1.35;;;;;;;25.29;39.92;100781.26;1671811;84;21117;-72
2022/06/03 08:16:35;;;;;;;2.15;1.30;;;;;;;25.26;38.38;100780.20;1655972;86;21141;-72
2022/06/03 08:19:21;;;;;;;3.85;1.60;;;;;;;25.43;38.54;100779.19;1656133;86;21105;-72
2022/06/03 08:21:54;;;;;;;1.87;1.40;;;;;;;25.62;37.89;100775.17;1651677;86;21100;-72
2022/06/03 08:24:28;;;;;;;1.95;1.40;;;;;;;25.58;37.57;100776.44;1671624;85;21088;-72
2022/06/03 08:27:04;;;;;;;4.90;1.72;;;;;;;25.44;36.72;100787.61;1651676;86;21185;-72
2022/06/03 08:29:36;;;;;;;2.45;1.42;;;;;;;25.53;38.07;100784.94;1672048;85;21061;-72
2022/06/03 08:32:13;;;;;;;3.20;1.52;;;;;;;25.69;38.60;100784.41;1671831;85;21063;-71
2022/06/03 08:34:46;;;;;;;1.77;1.45;;;;;;;25.94;38.58;100778.17;1671906;85;21589;-72
2022/06/03 08:37:19;;;;;;;2.20;1.52;;;;;;;26.25;38.21;100777.56;1653420;86;21060;-73
2022/06/03 08:39:46;;;;;;;6.92;1.60;;;;;;;26.41;36.80;100784.20;1671824;85;21936;-73
2022/06/03 08:42:31;;;;;;;2.60;1.40;;;;;;;26.53;35.60;100786.63;1651953;86;21414;-72
2022/06/03 08:45:10;;;;;;;5.67;1.40;;;;;;;26.76;35.67;100787.68;1635816;86;21010;-72
2022/06/03 08:47:41;;;;;;;1.80;1.20;;;;;;;26.89;35.23;100794.95;1671599;85;21040;-71
2022/06/03 08:50:13;;;;;;;2.17;1.37;;;;;;;27.02;35.17;100796.50;1671819;85;21075;-71
2022/06/03 08:53:02;;;;;;;2.17;1.10;;;;;;;27.28;34.44;100792.14;1670131;85;21672;-71
2022/06/03 08:55:38;;;;;;;1.35;1.20;;;;;;;27.40;33.94;100800.91;1623377;85;21063;-72
2022/06/03 08:58:10;;;;;;;2.50;1.00;;;;;;;27.41;33.68;100794.00;1671658;85;21075;-72
2022/06/03 09:01:00;;;;;;;2.98;1.30;;;;;;;27.51;34.16;100807.98;1665202;86;21331;-70
2022/06/03 09:03:29;;;;;;;1.55;1.10;;;;;;;27.64;32.88;100796.81;1639570;84;21172;-73
2022/06/03 09:06:11;;;;;;;1.12;1.00;;;;;;;27.52;33.48;100801.59;1638383;86;21133;-73
2022/06/03 09:08:56;;;;;;;2.52;1.37;;;;;;;27.57;34.39;100797.41;1658726;86;21074;-73
2022/06/03 09:11:31;;;;;;;7.33;1.20;;;;;;;27.64;33.68;100808.48;1666637;85;21074;-73
2022/06/03 09:16:33;;;;;;;3.12;1.20;;;;;;;27.75;33.49;100815.05;1849050;76;22551;-72
2022/06/03 09:19:20;;;;;;;1.07;0.98;;;;;;;27.84;31.89;100814.67;1816243;79;21553;-72
2022/06/03 09:21:51;;;;;;;1.90;1.00;;;;;;;27.77;32.52;100818.45;1786080;79;21239;-73
2022/06/03 09:24:24;;;;;;;1.98;0.90;;;;;;;27.79;32.15;100811.03;1816090;79;21004;-71
2022/06/03 09:26:59;;;;;;;3.20;1.00;;;;;;;27.82;32.61;100802.60;1816559;79;20997;-71
2022/06/03 09:29:26;;;;;;;3.15;1.00;;;;;;;28.17;32.26;100806.87;1816146;79;21048;-73
2022/06/03 09:31:57;;;;;;;3.25;1.20;;;;;;;28.43;31.42;100810.98;1816646;79;21064;-72
2022/06/03 09:34:41;;;;;;;2.98;0.70;;;;;;;28.40;30.90;100812.16;1784208;80;21310;-72
2022/06/03 09:37:32;;;;;;;1.20;1.07;;;;;;;28.23;29.98;100812.52;1761782;80;21064;-72
2022/06/03 09:39:59;;;;;;;6.30;1.22;;;;;;;28.11;30.98;100816.45;1784586;80;21020;-72
2022/06/03 09:42:26;;;;;;;1.45;1.00;;;;;;;28.17;30.65;100816.35;1784098;80;21037;-74
2022/06/03 09:44:54;;;;;;;1.00;0.90;;;;;;;28.18;31.16;100820.75;1784098;79;21083;-71
2022/06/03 09:47:21;;;;;;;3.33;0.90;;;;;;;28.25;30.64;100819.13;1784199;80;21098;-72
2022/06/03 09:49:50;;;;;;;2.10;0.95;;;;;;;28.24;29.87;100823.69;1784265;80;21135;-73
2022/06/03 09:52:23;;;;;;;3.92;1.10;;;;;;;28.39;30.15;100825.84;1784057;80;21541;-73
2022/06/03 09:54:51;;;;;;;1.50;0.90;;;;;;;28.35;30.25;100819.91;1784189;80;21497;-72
2022/06/03 09:57:33;;;;;;;0.82;0.82;;;;;;;28.39;29.74;100821.78;1783923;80;21021;-72
2022/06/03 10:00:21;;;;;;;1.67;1.05;;;;;;;28.43;29.08;100817.77;1779589;79;21290;-73
2022/06/03 10:02:48;;;;;;;1.70;1.00;;;;;;;28.36;28.98;100818.05;1784005;80;21568;-72
2022/06/03 10:05:17;;;;;;;2.75;1.17;;;;;;;28.09;29.07;100822.55;1784403;79;21510;-72
2022/06/03 10:07:46;;;;;;;1.55;0.90;;;;;;;28.04;28.93;100818.08;1784022;80;21056;-72
2022/06/03 10:13:06;;;;;;;3.20;0.80;;;;;;;27.74;30.00;100821.95;1815381;79;21553;-70
2022/06/03 10:15:38;;;;;;;1.55;1.00;;;;;;;27.74;31.20;100817.89;1822831;78;21552;-71
2022/06/03 10:18:15;;;;;;;1.77;0.80;;;;;;;28.01;29.51;100816.53;1830925;78;21047;-71
2022/06/03 10:20:44;;;;;;;0.95;0.78;;;;;;;28.10;29.51;100811.21;1831199;78;21024;-72
2022/06/03 10:23:10;;;;;;;1.80;0.98;;;;;;;28.16;30.03;100811.45;1831213;78;21048;-73
2022/06/03 10:25:43;;;;;;;3.70;0.78;;;;;;;28.23;28.70;100809.82;1831548;78;21122;-72
2022/06/03 10:28:10;;;;;;;1.85;1.00;;;;;;;28.11;29.21;100813.74;1830533;78;21020;-71
2022/06/03 10:30:42;;;;;;;7.08;1.00;;;;;;;28.22;28.87;100817.58;1830594;78;21059;-72
2022/06/03 10:33:17;;;;;;;4.35;0.75;;;;;;;28.47;28.38;100811.06;1830714;78;21072;-72
2022/06/03 10:35:44;;;;;;;4.33;1.00;;;;;;;28.72;29.04;100808.55;1830603;78;21024;-72
2022/06/03 10:38:15;;;;;;;3.00;0.90;;;;;;;28.77;29.21;100811.62;1830572;78;21440;-73
2022/06/03 10:40:44;;;;;;;1.22;1.00;;;;;;;28.79;27.66;100811.81;1803573;78;24800;-74
2022/06/03 10:43:10;;;;;;;1.20;0.72;;;;;;;28.58;28.81;100810.82;1830506;78;21088;-74
2022/06/03 10:45:38;;;;;;;1.10;0.80;;;;;;;28.58;28.41;100805.40;1830288;78;21583;-73
2022/06/03 10:48:28;;;;;;;0.90;0.70;;;;;;;28.61;26.66;100794.75;1830461;78;21682;-73
2022/06/03 10:50:58;;;;;;;1.80;0.80;;;;;;;28.68;28.49;100803.94;1830613;78;21654;-73
2022/06/03 11:01:44;;;;;;;0.98;0.72;;;;;;;28.39;28.14;100808.23;1790960;78;21075;-73
2022/06/03 11:04:37;;;;;;;1.65;0.70;;;;;;;28.36;27.92;100795.86;1831053;78;21136;-72
2022/06/03 11:07:23;;;;;;;1.80;0.70;;;;;;;28.38;26.79;100799.78;1825878;78;21001;-73
2022/06/03 11:09:57;;;;;;;3.10;0.70;;;;;;;28.54;27.10;100801.81;1830969;78;21107;-73
2022/06/03 11:12:26;;;;;;;4.17;0.80;;;;;;;28.63;26.44;100796.80;1822208;78;21060;-72
2022/06/03 11:14:54;;;;;;;5.10;0.85;;;;;;;28.33;27.60;100799.41;1758545;81;21016;-73
2022/06/03 11:17:36;;;;;;;1.70;0.70;;;;;;;28.29;27.83;100802.91;1770437;81;21013;-73
2022/06/03 11:20:06;;;;;;;1.35;0.80;;;;;;;28.42;26.89;100805.23;1770249;81;21041;-73
2022/06/03 11:22:38;;;;;;;2.47;0.80;;;;;;;28.40;27.72;100804.55;1723908;81;21045;-72
2022/06/03 11:25:28;;;;;;;2.25;0.82;;;;;;;28.47;27.50;100797.52;1770461;81;21104;-72
2022/06/03 11:28:06;;;;;;;3.40;1.07;;;;;;;28.45;25.67;100798.98;1770630;81;22307;-73
2022/06/03 11:30:48;;;;;;;3.60;0.78;;;;;;;28.34;27.45;100802.45;1753074;81;21074;-72
2022/06/03 11:33:43;;;;;;;2.22;0.70;;;;;;;28.27;26.82;100806.28;1770314;81;21635;-73
2022/06/03 11:36:21;;;;;;;1.52;0.90;;;;;;;28.00;25.86;100796.40;1770454;81;21100;-73
2022/06/03 11:38:59;;;;;;;1.05;0.75;;;;;;;27.81;27.04;100791.44;1751499;81;21717;-72
2022/06/03 11:41:37;;;;;;;1.70;0.78;;;;;;;27.69;26.63;100795.34;1751815;81;21056;-72
2022/06/03 11:44:21;;;;;;;0.93;0.53;;;;;;;27.56;25.79;100786.73;1770033;81;21255;-72
2022/06/03 11:47:07;;;;;;;1.77;0.62;;;;;;;27.51;26.56;100787.18;1770580;81;21057;-72
2022/06/03 11:49:34;;;;;;;2.05;0.70;;;;;;;27.41;26.59;100791.30;1752785;81;21057;-72
2022/06/03 11:52:02;;;;;;;3.37;0.70;;;;;;;27.21;26.72;100791.03;1770262;81;21092;-73
2022/06/03 11:54:29;;;;;;;2.10;0.72;;;;;;;27.05;27.39;100779.97;1717887;81;21112;-73
2022/06/03 11:56:55;;;;;;;2.55;0.60;;;;;;;27.13;27.36;100780.94;1770400;81;21109;-73
2022/06/03 11:59:38;;;;;;;1.22;0.70;;;;;;;27.32;26.81;100778.67;1752663;81;20998;-72
2022/06/03 12:02:16;;;;;;;7.53;0.62;;;;;;;27.48;26.62;100783.44;1770701;81;21087;-70
2022/06/03 12:04:57;;;;;;;1.35;0.78;;;;;;;27.51;26.09;100773.66;1770422;81;21533;-74
2022/06/03 12:07:35;;;;;;;1.57;0.70;;;;;;;27.43;26.20;100774.09;1752622;81;21025;-73
2022/06/03 12:10:24;;;;;;;1.87;0.70;;;;;;;27.34;26.54;100772.63;1770443;81;21963;-72
2022/06/03 12:13:17;;;;;;;2.33;0.90;;;;;;;27.35;27.02;100772.11;1771864;81;21009;-72
2022/06/03 12:15:58;;;;;;;1.37;0.50;;;;;;;27.36;26.42;100765.22;1766336;80;21119;-74
2022/06/03 12:18:57;;;;;;;0.90;0.70;;;;;;;27.28;25.81;100767.80;1769056;81;21122;-73
2022/06/03 12:21:38;;;;;;;1.98;0.90;;;;;;;27.25;26.14;100770.81;1779697;80;21044;-73
2022/06/03 12:24:35;;;;;;;2.05;1.17;;;;;;;27.29;27.48;100772.23;1760780;81;21177;-71
2022/06/03 12:27:02;;;;;;;1.90;0.75;;;;;;;27.31;27.97;100770.23;1760879;81;21615;-71
2022/06/03 12:29:36;;;;;;;1.27;0.90;;;;;;;27.44;27.71;100764.95;1760988;81;21095;-72
2022/06/03 12:32:28;;;;;;;1.40;0.80;;;;;;;27.28;27.05;100762.39;1760935;81;21061;-73
2022/06/03 12:35:40;;;;;;;1.45;0.70;;;;;;;27.01;27.70;100757.81;1761172;81;21056;-72
2022/06/03 12:38:29;;;;;;;1.35;0.90;;;;;;;26.99;27.73;100753.05;1749813;81;21249;-72
2022/06/03 12:41:00;;;;;;;2.60;1.00;;;;;;;26.99;28.28;100759.30;1760866;81;21096;-73
2022/06/03 12:43:35;;;;;;;1.22;0.98;;;;;;;27.11;28.50;100749.66;1760871;81;21587;-72
2022/06/03 12:46:09;;;;;;;3.95;1.10;;;;;;;27.20;29.23;100752.34;1724722;81;21116;-73
2022/06/03 12:48:47;;;;;;;4.33;0.98;;;;;;;27.22;29.40;100741.38;1760857;81;21127;-74
2022/06/03 12:51:28;;;;;;;0.98;0.80;;;;;;;27.17;30.05;100735.52;1761150;81;21080;-72
2022/06/03 12:53:58;;;;;;;2.15;0.90;;;;;;;27.17;30.09;100731.46;1760895;81;21092;-73
2022/06/03 12:56:48;;;;;;;3.35;0.93;;;;;;;27.25;30.05;100751.89;1761175;81;21053;-71
2022/06/03 12:59:29;;;;;;;3.02;1.17;;;;;;;27.25;30.10;100743.78;1761174;81;21103;-71
2022/06/03 13:02:04;;;;;;;4.67;0.90;;;;;;;27.14;30.03;100745.29;1760831;81;21076;-72
2022/06/03 13:04:58;;;;;;;1.17;1.00;;;;;;;27.00;29.30;100747.98;1760492;81;21247;-72
2022/06/03 13:07:36;;;;;;;1.20;1.00;;;;;;;26.98;28.97;100737.31;1760775;81;21589;-72
2022/06/03 13:10:18;;;;;;;2.65;1.20;;;;;;;26.86;29.57;100737.15;1760727;81;21349;-74
2022/06/03 13:12:48;;;;;;;2.50;1.10;;;;;;;26.72;30.35;100733.58;1760626;81;21048;-72